sensor_id;sensor_type;location;lat;lon;timestamp;pressure;altitude;pressure_sealevel;temperature;humidity
6020;BME280;3038;51.122;6.840;2023-07-31T00:01:14;100836.25;;;17.03;97.50
6020;BME280;3038;51.122;6.840;2023-07-31T00:03:39;100843.88;;;17.06;97.03
6020;BME280;3038;51.122;6.840;2023-07-31T00:06:05;100843.72;;;17.07;97.37
6020;BME280;3038;51.122;6.840;2023-07-31T00:08:30;100839.94;;;17.02;97.20
6020;BME280;3038;51.122;6.840;2023-07-31T00:10:55;100838.28;;;16.94;97.46
6020;BME280;3038;51.122;6.840;2023-07-31T00:13:21;100846.91;;;16.89;97.96
6020;BME280;3038;51.122;6.840;2023-07-31T00:15:46;100841.94;;;16.86;98.24
6020;BME280;3038;51.122;6.840;2023-07-31T00:18:11;100841.94;;;16.86;98.36
6020;BME280;3038;51.122;6.840;2023-07-31T00:20:37;100845.66;;;16.92;97.73
6020;BME280;3038;51.122;6.840;2023-07-31T00:23:02;100847.56;;;16.98;97.61
6020;BME280;3038;51.122;6.840;2023-07-31T00:25:27;100839.94;;;17.02;96.37
6020;BME280;3038;51.122;6.840;2023-07-31T00:27:53;100835.06;;;17.12;95.63
6020;BME280;3038;51.122;6.840;2023-07-31T00:30:18;100842.31;;;17.18;95.44
6020;BME280;3038;51.122;6.840;2023-07-31T00:32:44;100844.56;;;17.21;95.37
6020;BME280;3038;51.122;6.840;2023-07-31T00:35:09;100844.19;;;17.24;95.02
6020;BME280;3038;51.122;6.840;2023-07-31T00:37:34;100845.44;;;17.28;94.85
6020;BME280;3038;51.122;6.840;2023-07-31T00:40:00;100848.72;;;17.30;94.22
6020;BME280;3038;51.122;6.840;2023-07-31T00:42:25;100842.16;;;17.33;93.25
6020;BME280;3038;51.122;6.840;2023-07-31T00:44:51;100836.78;;;17.39;93.31
6020;BME280;3038;51.122;6.840;2023-07-31T00:47:16;100832.25;;;17.40;92.97
6020;BME280;3038;51.122;6.840;2023-07-31T00:49:41;100835.75;;;17.40;92.10
6020;BME280;3038;51.122;6.840;2023-07-31T00:52:08;100836.00;;;17.45;92.42
6020;BME280;3038;51.122;6.840;2023-07-31T00:54:33;100833.50;;;17.44;92.02
6020;BME280;3038;51.122;6.840;2023-07-31T00:56:59;100829.78;;;17.45;91.89
6020;BME280;3038;51.122;6.840;2023-07-31T00:59:25;100827.75;;;17.47;91.78
6020;BME280;3038;51.122;6.840;2023-07-31T01:01:50;100824.22;;;17.46;91.34
6020;BME280;3038;51.122;6.840;2023-07-31T01:04:17;100822.38;;;17.47;91.08
6020;BME280;3038;51.122;6.840;2023-07-31T01:09:47;100819.91;;;17.45;90.13
6020;BME280;3038;51.122;6.840;2023-07-31T01:12:19;100812.69;;;17.46;90.24
6020;BME280;3038;51.122;6.840;2023-07-31T01:15:01;100819.91;;;17.45;90.08
6020;BME280;3038;51.122;6.840;2023-07-31T01:17:27;100822.59;;;17.45;89.98
6020;BME280;3038;51.122;6.840;2023-07-31T01:19:55;100817.00;;;17.47;89.80
6020;BME280;3038;51.122;6.840;2023-07-31T01:27:44;100822.59;;;17.45;89.55
6020;BME280;3038;51.122;6.840;2023-07-31T01:30:21;100817.22;;;17.45;89.50
6020;BME280;3038;51.122;6.840;2023-07-31T01:32:51;100817.41;;;17.44;88.54
6020;BME280;3038;51.122;6.840;2023-07-31T01:35:20;100815.34;;;17.46;88.48
6020;BME280;3038;51.122;6.840;2023-07-31T01:37:45;100813.91;;;17.43;88.03
6020;BME280;3038;51.122;6.840;2023-07-31T01:40:11;100799.25;;;17.46;87.84
6020;BME280;3038;51.122;6.840;2023-07-31T01:42:36;100820.50;;;17.47;87.42
6020;BME280;3038;51.122;6.840;2023-07-31T01:45:02;100815.75;;;17.50;87.26
6020;BME280;3038;51.122;6.840;2023-07-31T01:47:27;100808.34;;;17.52;87.26
6020;BME280;3038;51.122;6.840;2023-07-31T01:49:52;100801.34;;;17.51;87.66
6020;BME280;3038;51.122;6.840;2023-07-31T01:52:18;100793.47;;;17.49;87.33
6020;BME280;3038;51.122;6.840;2023-07-31T01:54:43;100812.47;;;17.47;87.33
6020;BME280;3038;51.122;6.840;2023-07-31T01:57:08;100798.00;;;17.48;87.58
6020;BME280;3038;51.122;6.840;2023-07-31T01:59:34;100806.69;;;17.51;87.61
6020;BME280;3038;51.122;6.840;2023-07-31T02:01:59;100807.09;;;17.47;88.18
6020;BME280;3038;51.122;6.840;2023-07-31T02:04:24;100796.34;;;17.47;87.90
6020;BME280;3038;51.122;6.840;2023-07-31T02:06:50;100798.00;;;17.48;88.21
6020;BME280;3038;51.122;6.840;2023-07-31T02:09:15;100795.53;;;17.47;87.50
6020;BME280;3038;51.122;6.840;2023-07-31T02:11:40;100794.72;;;17.46;88.22
6020;BME280;3038;51.122;6.840;2023-07-31T02:14:06;100779.44;;;17.47;87.81
6020;BME280;3038;51.122;6.840;2023-07-31T02:16:31;100781.50;;;17.52;87.91
6020;BME280;3038;51.122;6.840;2023-07-31T02:18:56;100781.50;;;17.52;87.52
6020;BME280;3038;51.122;6.840;2023-07-31T02:21:22;100779.84;;;17.51;87.80
6020;BME280;3038;51.122;6.840;2023-07-31T02:23:47;100781.28;;;17.53;87.74
6020;BME280;3038;51.122;6.840;2023-07-31T02:26:12;100784.78;;;17.54;87.74
6020;BME280;3038;51.122;6.840;2023-07-31T02:28:38;100783.16;;;17.53;88.04
6020;BME280;3038;51.122;6.840;2023-07-31T02:31:03;100781.06;;;17.55;88.12
6020;BME280;3038;51.122;6.840;2023-07-31T02:33:29;100782.75;;;17.56;88.56
6020;BME280;3038;51.122;6.840;2023-07-31T02:35:54;100778.00;;;17.58;88.41
6020;BME280;3038;51.122;6.840;2023-07-31T02:38:19;100779.84;;;17.57;88.23
6020;BME280;3038;51.122;6.840;2023-07-31T02:40:45;100771.59;;;17.59;88.36
6020;BME280;3038;51.122;6.840;2023-07-31T02:43:10;100771.41;;;17.60;88.04
6020;BME280;3038;51.122;6.840;2023-07-31T02:45:36;100764.56;;;17.64;88.01
6020;BME280;3038;51.122;6.840;2023-07-31T02:48:01;100766.63;;;17.62;88.29
6020;BME280;3038;51.122;6.840;2023-07-31T02:50:26;100765.41;;;17.65;87.93
6020;BME280;3038;51.122;6.840;2023-07-31T02:52:53;100765.00;;;17.68;88.01
6020;BME280;3038;51.122;6.840;2023-07-31T02:55:19;100755.91;;;17.69;87.73
6020;BME280;3038;51.122;6.840;2023-07-31T02:57:44;100761.69;;;17.72;87.92
6020;BME280;3038;51.122;6.840;2023-07-31T03:00:10;100759.22;;;17.71;87.93
6020;BME280;3038;51.122;6.840;2023-07-31T03:02:35;100755.50;;;17.72;87.86
6020;BME280;3038;51.122;6.840;2023-07-31T03:05:00;100758.00;;;17.73;87.68
6020;BME280;3038;51.122;6.840;2023-07-31T03:07:26;100743.56;;;17.75;87.41
6020;BME280;3038;51.122;6.840;2023-07-31T03:09:51;100749.75;;;17.75;87.78
6020;BME280;3038;51.122;6.840;2023-07-31T03:12:16;100743.94;;;17.78;87.73
6020;BME280;3038;51.122;6.840;2023-07-31T03:14:42;100740.03;;;17.74;87.28
6020;BME280;3038;51.122;6.840;2023-07-31T03:17:07;100743.13;;;17.78;87.86
6020;BME280;3038;51.122;6.840;2023-07-31T03:19:33;100743.94;;;17.78;87.64
6020;BME280;3038;51.122;6.840;2023-07-31T03:21:59;100747.28;;;17.80;87.08
6020;BME280;3038;51.122;6.840;2023-07-31T03:24:25;100743.56;;;17.81;86.95
6020;BME280;3038;51.122;6.840;2023-07-31T03:26:50;100745.19;;;17.82;87.26
6020;BME280;3038;51.122;6.840;2023-07-31T03:29:16;100739.00;;;17.82;87.26
6020;BME280;3038;51.122;6.840;2023-07-31T03:31:41;100738.19;;;17.81;87.39
6020;BME280;3038;51.122;6.840;2023-07-31T03:34:06;100744.16;;;17.83;87.10
6020;BME280;3038;51.122;6.840;2023-07-31T03:36:32;100743.16;;;17.84;87.60
6020;BME280;3038;51.122;6.840;2023-07-31T03:38:57;100747.66;;;17.84;87.74
6020;BME280;3038;51.122;6.840;2023-07-31T03:41:22;100746.03;;;17.83;87.78
6020;BME280;3038;51.122;6.840;2023-07-31T03:43:49;100741.91;;;17.80;88.17
6020;BME280;3038;51.122;6.840;2023-07-31T03:46:16;100741.66;;;17.68;88.47
6020;BME280;3038;51.122;6.840;2023-07-31T03:48:42;100732.56;;;17.63;89.59
6020;BME280;3038;51.122;6.840;2023-07-31T03:51:07;100733.19;;;17.58;89.89
6020;BME280;3038;51.122;6.840;2023-07-31T03:53:32;100731.75;;;17.56;90.21
6020;BME280;3038;51.122;6.840;2023-07-31T03:55:58;100738.13;;;17.55;90.26
6020;BME280;3038;51.122;6.840;2023-07-31T03:58:23;100735.44;;;17.55;90.35
6020;BME280;3038;51.122;6.840;2023-07-31T04:00:48;100731.75;;;17.56;90.29
6020;BME280;3038;51.122;6.840;2023-07-31T04:03:14;100721.63;;;17.58;90.32
6020;BME280;3038;51.122;6.840;2023-07-31T04:05:39;100719.53;;;17.60;90.44
6020;BME280;3038;51.122;6.840;2023-07-31T04:08:05;100716.84;;;17.60;90.03
6020;BME280;3038;51.122;6.840;2023-07-31T04:10:30;100710.47;;;17.61;90.18
6020;BME280;3038;51.122;6.840;2023-07-31T04:12:58;100712.94;;;17.62;89.58
6020;BME280;3038;51.122;6.840;2023-07-31T04:15:23;100718.09;;;17.64;89.80
6020;BME280;3038;51.122;6.840;2023-07-31T04:17:49;100710.03;;;17.64;89.77
6020;BME280;3038;51.122;6.840;2023-07-31T04:20:14;100716.66;;;17.68;89.51
6020;BME280;3038;51.122;6.840;2023-07-31T04:22:40;100718.31;;;17.69;89.46
6020;BME280;3038;51.122;6.840;2023-07-31T04:25:05;100709.41;;;17.68;89.91
6020;BME280;3038;51.122;6.840;2023-07-31T04:27:31;100703.88;;;17.70;89.84
6020;BME280;3038;51.122;6.840;2023-07-31T04:29:56;100706.97;;;17.73;90.05
6020;BME280;3038;51.122;6.840;2023-07-31T04:32:21;100704.09;;;17.75;89.96
6020;BME280;3038;51.122;6.840;2023-07-31T04:34:47;100712.16;;;17.75;89.59
6020;BME280;3038;51.122;6.840;2023-07-31T04:37:12;100704.72;;;17.77;89.85
6020;BME280;3038;51.122;6.840;2023-07-31T04:39:39;100700.97;;;17.78;89.91
6020;BME280;3038;51.122;6.840;2023-07-31T04:42:04;100697.91;;;17.81;90.20
6020;BME280;3038;51.122;6.840;2023-07-31T04:44:30;100695.81;;;17.83;89.83
6020;BME280;3038;51.122;6.840;2023-07-31T04:46:55;100697.50;;;17.84;89.51
6020;BME280;3038;51.122;6.840;2023-07-31T04:49:20;100695.00;;;17.83;89.66
6020;BME280;3038;51.122;6.840;2023-07-31T04:51:47;100698.69;;;17.88;89.43
6020;BME280;3038;51.122;6.840;2023-07-31T04:54:12;100695.19;;;17.94;88.82
6020;BME280;3038;51.122;6.840;2023-07-31T04:56:40;100691.88;;;17.99;88.34
6020;BME280;3038;51.122;6.840;2023-07-31T04:59:06;100679.47;;;18.05;88.25
6020;BME280;3038;51.122;6.840;2023-07-31T05:01:31;100684.00;;;18.11;87.54
6020;BME280;3038;51.122;6.840;2023-07-31T05:03:56;100677.78;;;18.17;87.71
6020;BME280;3038;51.122;6.840;2023-07-31T05:06:22;100673.41;;;18.22;87.64
6020;BME280;3038;51.122;6.840;2023-07-31T05:08:47;100672.19;;;18.25;87.19
6020;BME280;3038;51.122;6.840;2023-07-31T05:11:12;100661.22;;;18.33;87.13
6020;BME280;3038;51.122;6.840;2023-07-31T05:13:38;100658.53;;;18.33;86.87
6020;BME280;3038;51.122;6.840;2023-07-31T05:16:03;100660.38;;;18.33;86.55
6020;BME280;3038;51.122;6.840;2023-07-31T05:18:29;100662.84;;;18.34;86.61
6020;BME280;3038;51.122;6.840;2023-07-31T05:20:54;100650.47;;;18.33;86.99
6020;BME280;3038;51.122;6.840;2023-07-31T05:23:19;100650.00;;;18.36;86.47
6020;BME280;3038;51.122;6.840;2023-07-31T05:25:45;100649.59;;;18.39;85.97
6020;BME280;3038;51.122;6.840;2023-07-31T05:28:11;100645.00;;;18.46;85.71
6020;BME280;3038;51.122;6.840;2023-07-31T05:30:37;100642.50;;;18.52;85.31
6020;BME280;3038;51.122;6.840;2023-07-31T05:33:02;100642.91;;;18.55;84.91
6020;BME280;3038;51.122;6.840;2023-07-31T05:35:27;100637.34;;;18.57;84.48
6020;BME280;3038;51.122;6.840;2023-07-31T05:37:53;100629.88;;;18.59;84.25
6020;BME280;3038;51.122;6.840;2023-07-31T05:40:18;100626.34;;;18.58;84.23
6020;BME280;3038;51.122;6.840;2023-07-31T05:42:43;100615.59;;;18.58;83.97
6020;BME280;3038;51.122;6.840;2023-07-31T05:45:09;100609.41;;;18.58;83.47
6020;BME280;3038;51.122;6.840;2023-07-31T05:47:35;100615.19;;;18.55;83.12
6020;BME280;3038;51.122;6.840;2023-07-31T05:50:00;100611.91;;;18.53;82.74
6020;BME280;3038;51.122;6.840;2023-07-31T05:52:26;100604.84;;;18.52;83.24
6020;BME280;3038;51.122;6.840;2023-07-31T05:54:51;100618.31;;;18.52;83.27
6020;BME280;3038;51.122;6.840;2023-07-31T05:57:17;100614.97;;;18.56;83.59
6020;BME280;3038;51.122;6.840;2023-07-31T05:59:42;100612.91;;;18.52;83.49
6020;BME280;3038;51.122;6.840;2023-07-31T06:02:08;100609.47;;;18.44;83.71
6020;BME280;3038;51.122;6.840;2023-07-31T06:04:33;100624.00;;;18.30;84.84
6020;BME280;3038;51.122;6.840;2023-07-31T06:06:58;100620.38;;;18.05;86.50
6020;BME280;3038;51.122;6.840;2023-07-31T06:09:24;100616.69;;;17.79;88.32
6020;BME280;3038;51.122;6.840;2023-07-31T06:11:49;100629.09;;;17.60;90.42
6020;BME280;3038;51.122;6.840;2023-07-31T06:14:15;100623.31;;;17.50;91.62
6020;BME280;3038;51.122;6.840;2023-07-31T06:16:40;100630.75;;;17.41;92.67
6020;BME280;3038;51.122;6.840;2023-07-31T06:19:06;100617.53;;;17.33;93.28
6020;BME280;3038;51.122;6.840;2023-07-31T06:21:32;100624.97;;;17.25;93.97
6020;BME280;3038;51.122;6.840;2023-07-31T06:23:58;100619.19;;;17.21;94.62
6020;BME280;3038;51.122;6.840;2023-07-31T06:26:23;100620.41;;;17.25;95.07
6020;BME280;3038;51.122;6.840;2023-07-31T06:28:48;100611.97;;;17.28;94.39
6020;BME280;3038;51.122;6.840;2023-07-31T06:31:14;100612.56;;;17.30;94.47
6020;BME280;3038;51.122;6.840;2023-07-31T06:33:39;100613.81;;;17.34;95.30
6020;BME280;3038;51.122;6.840;2023-07-31T06:36:04;100609.69;;;17.38;95.17
6020;BME280;3038;51.122;6.840;2023-07-31T06:38:30;100610.53;;;17.45;94.98
6020;BME280;3038;51.122;6.840;2023-07-31T06:40:55;100614.03;;;17.53;95.50
6020;BME280;3038;51.122;6.840;2023-07-31T06:43:22;100627.66;;;17.58;95.26
6020;BME280;3038;51.122;6.840;2023-07-31T06:45:47;100621.44;;;17.64;94.21
6020;BME280;3038;51.122;6.840;2023-07-31T06:48:16;100617.53;;;17.73;94.40
6020;BME280;3038;51.122;6.840;2023-07-31T06:50:41;100616.28;;;17.82;93.54
6020;BME280;3038;51.122;6.840;2023-07-31T06:53:07;100604.25;;;17.98;93.14
6020;BME280;3038;51.122;6.840;2023-07-31T06:55:32;100615.00;;;18.05;91.99
6020;BME280;3038;51.122;6.840;2023-07-31T06:57:58;100612.06;;;18.13;91.48
6020;BME280;3038;51.122;6.840;2023-07-31T07:00:23;100622.38;;;18.16;90.88
6020;BME280;3038;51.122;6.840;2023-07-31T07:02:49;100609.56;;;18.18;90.47
6020;BME280;3038;51.122;6.840;2023-07-31T07:05:16;100609.31;;;18.26;89.95
6020;BME280;3038;51.122;6.840;2023-07-31T07:07:41;100618.03;;;18.28;88.90
6020;BME280;3038;51.122;6.840;2023-07-31T07:10:07;100617.56;;;18.31;89.54
6020;BME280;3038;51.122;6.840;2023-07-31T07:12:33;100604.19;;;18.18;89.27
6020;BME280;3038;51.122;6.840;2023-07-31T07:14:59;100608.34;;;18.14;89.70
6020;BME280;3038;51.122;6.840;2023-07-31T07:17:26;100604.63;;;18.15;89.74
6020;BME280;3038;51.122;6.840;2023-07-31T07:19:51;100606.88;;;18.18;88.82
6020;BME280;3038;51.122;6.840;2023-07-31T07:22:17;100597.59;;;18.14;88.56
6020;BME280;3038;51.122;6.840;2023-07-31T07:24:43;100596.78;;;18.07;89.03
6020;BME280;3038;51.122;6.840;2023-07-31T07:27:08;100597.59;;;18.07;89.45
6020;BME280;3038;51.122;6.840;2023-07-31T07:29:34;100605.50;;;17.89;90.30
6020;BME280;3038;51.122;6.840;2023-07-31T07:32:00;100603.88;;;17.55;92.26
6020;BME280;3038;51.122;6.840;2023-07-31T07:34:26;100604.34;;;17.32;94.17
6020;BME280;3038;51.122;6.840;2023-07-31T07:36:52;100603.06;;;17.21;96.11
6020;BME280;3038;51.122;6.840;2023-07-31T07:39:17;100611.34;;;17.13;96.42
6020;BME280;3038;51.122;6.840;2023-07-31T07:41:43;100605.13;;;17.06;97.30
6020;BME280;3038;51.122;6.840;2023-07-31T07:44:08;100612.19;;;17.07;98.76
6020;BME280;3038;51.122;6.840;2023-07-31T07:46:34;100610.72;;;17.11;98.60
6020;BME280;3038;51.122;6.840;2023-07-31T07:48:59;100616.72;;;17.13;98.64
6020;BME280;3038;51.122;6.840;2023-07-31T07:51:24;100604.94;;;17.14;99.17
6020;BME280;3038;51.122;6.840;2023-07-31T07:53:50;100609.28;;;17.15;99.53
6020;BME280;3038;51.122;6.840;2023-07-31T07:56:15;100607.63;;;17.20;99.48
6020;BME280;3038;51.122;6.840;2023-07-31T07:58:40;100609.09;;;17.16;99.80
6020;BME280;3038;51.122;6.840;2023-07-31T08:01:06;100609.50;;;17.07;99.91
6020;BME280;3038;51.122;6.840;2023-07-31T08:03:31;100609.25;;;17.02;100.00
6020;BME280;3038;51.122;6.840;2023-07-31T08:06:00;100606.78;;;17.00;100.00
6020;BME280;3038;51.122;6.840;2023-07-31T08:08:26;100597.94;;;16.93;100.00
6020;BME280;3038;51.122;6.840;2023-07-31T08:10:51;100592.34;;;16.94;100.00
6020;BME280;3038;51.122;6.840;2023-07-31T08:13:17;100595.25;;;17.00;100.00
6020;BME280;3038;51.122;6.840;2023-07-31T08:15:42;100592.94;;;16.96;100.00
6020;BME280;3038;51.122;6.840;2023-07-31T08:18:08;100577.50;;;16.99;100.00
6020;BME280;3038;51.122;6.840;2023-07-31T08:20:33;100585.75;;;17.04;100.00
6020;BME280;3038;51.122;6.840;2023-07-31T08:22:59;100579.56;;;17.03;99.52
6020;BME280;3038;51.122;6.840;2023-07-31T08:25:24;100585.34;;;17.00;99.07
6020;BME280;3038;51.122;6.840;2023-07-31T08:27:50;100570.50;;;16.98;98.46
6020;BME280;3038;51.122;6.840;2023-07-31T08:30:18;100573.97;;;17.11;98.60
6020;BME280;3038;51.122;6.840;2023-07-31T08:32:43;100570.47;;;17.24;97.27
6020;BME280;3038;51.122;6.840;2023-07-31T08:35:08;100565.91;;;17.44;96.54
6020;BME280;3038;51.122;6.840;2023-07-31T08:37:34;100564.66;;;17.67;95.60
6020;BME280;3038;51.122;6.840;2023-07-31T08:39:59;100560.50;;;17.84;94.34
6020;BME280;3038;51.122;6.840;2023-07-31T08:42:25;100558.84;;;17.90;94.30
6020;BME280;3038;51.122;6.840;2023-07-31T08:44:50;100566.00;;;18.03;93.41
6020;BME280;3038;51.122;6.840;2023-07-31T08:47:19;100553.78;;;18.13;92.16
6020;BME280;3038;51.122;6.840;2023-07-31T08:49:46;100559.31;;;18.25;93.58
6020;BME280;3038;51.122;6.840;2023-07-31T08:52:12;100559.25;;;18.38;92.37
6020;BME280;3038;51.122;6.840;2023-07-31T08:54:37;100559.38;;;18.50;89.69
6020;BME280;3038;51.122;6.840;2023-07-31T08:57:04;100552.53;;;18.54;88.11
6020;BME280;3038;51.122;6.840;2023-07-31T08:59:31;100562.88;;;18.50;89.14
6020;BME280;3038;51.122;6.840;2023-07-31T09:02:03;100561.47;;;18.41;89.02
6020;BME280;3038;51.122;6.840;2023-07-31T09:04:30;100562.13;;;18.37;88.76
6020;BME280;3038;51.122;6.840;2023-07-31T09:14:21;100577.81;;;17.88;92.33
6020;BME280;3038;51.122;6.840;2023-07-31T09:16:54;100576.84;;;17.63;94.15
6020;BME280;3038;51.122;6.840;2023-07-31T09:19:27;100559.94;;;17.42;94.76
6020;BME280;3038;51.122;6.840;2023-07-31T09:21:53;100571.72;;;17.41;95.75
6020;BME280;3038;51.122;6.840;2023-07-31T09:24:26;100570.88;;;17.47;96.49
6020;BME280;3038;51.122;6.840;2023-07-31T09:26:53;100553.72;;;17.55;95.97
6020;BME280;3038;51.122;6.840;2023-07-31T09:29:19;100563.41;;;17.63;95.08
6020;BME280;3038;51.122;6.840;2023-07-31T09:31:45;100550.59;;;17.78;95.27
6020;BME280;3038;51.122;6.840;2023-07-31T09:34:11;100554.66;;;18.01;94.15
6020;BME280;3038;51.122;6.840;2023-07-31T09:36:44;100544.63;;;18.21;94.54
6020;BME280;3038;51.122;6.840;2023-07-31T09:39:11;100549.53;;;18.37;93.27
6020;BME280;3038;51.122;6.840;2023-07-31T09:41:42;100553.59;;;18.46;91.78
6020;BME280;3038;51.122;6.840;2023-07-31T09:44:07;100547.03;;;18.42;90.74
6020;BME280;3038;51.122;6.840;2023-07-31T09:46:35;100550.56;;;18.36;90.95
6020;BME280;3038;51.122;6.840;2023-07-31T09:49:04;100537.56;;;18.33;89.05
6020;BME280;3038;51.122;6.840;2023-07-31T09:51:31;100536.44;;;18.03;91.34
6020;BME280;3038;51.122;6.840;2023-07-31T09:53:56;100541.50;;;17.86;92.51
6020;BME280;3038;51.122;6.840;2023-07-31T09:56:23;100533.66;;;17.84;92.88
6020;BME280;3038;51.122;6.840;2023-07-31T09:58:49;100537.72;;;17.93;94.19
6020;BME280;3038;51.122;6.840;2023-07-31T10:01:15;100535.63;;;18.02;93.13
6020;BME280;3038;51.122;6.840;2023-07-31T10:03:42;100533.13;;;18.14;93.99
6020;BME280;3038;51.122;6.840;2023-07-31T10:06:09;100524.47;;;18.05;93.31
6020;BME280;3038;51.122;6.840;2023-07-31T10:08:36;100521.97;;;18.10;94.47
6020;BME280;3038;51.122;6.840;2023-07-31T10:11:04;100526.34;;;18.05;93.73
6020;BME280;3038;51.122;6.840;2023-07-31T10:13:30;100525.97;;;17.94;94.35
6020;BME280;3038;51.122;6.840;2023-07-31T10:15:59;100520.81;;;17.86;94.86
6020;BME280;3038;51.122;6.840;2023-07-31T10:18:26;100528.28;;;17.84;95.41
6020;BME280;3038;51.122;6.840;2023-07-31T10:20:52;100533.41;;;17.92;96.40
6020;BME280;3038;51.122;6.840;2023-07-31T10:23:18;100537.72;;;18.00;95.60
6020;BME280;3038;51.122;6.840;2023-07-31T10:25:43;100526.94;;;18.07;96.03
6020;BME280;3038;51.122;6.840;2023-07-31T10:28:11;100529.84;;;17.98;95.08
6020;BME280;3038;51.122;6.840;2023-07-31T10:30:37;100533.13;;;18.07;95.23
6020;BME280;3038;51.122;6.840;2023-07-31T10:33:05;100527.47;;;18.29;94.78
6020;BME280;3038;51.122;6.840;2023-07-31T10:35:31;100511.97;;;18.56;93.18
6020;BME280;3038;51.122;6.840;2023-07-31T10:38:09;100527.69;;;19.15;91.82
6020;BME280;3038;51.122;6.840;2023-07-31T10:40:34;100532.03;;;19.60;86.86
6020;BME280;3038;51.122;6.840;2023-07-31T10:43:01;100523.69;;;19.68;86.25
6020;BME280;3038;51.122;6.840;2023-07-31T10:45:38;100512.56;;;19.94;85.47
6020;BME280;3038;51.122;6.840;2023-07-31T10:48:05;100516.56;;;20.22;84.52
6020;BME280;3038;51.122;6.840;2023-07-31T10:50:47;100510.41;;;20.33;82.12
6020;BME280;3038;51.122;6.840;2023-07-31T10:53:31;100510.66;;;20.43;80.78
6020;BME280;3038;51.122;6.840;2023-07-31T10:56:00;100511.00;;;20.77;80.27
6020;BME280;3038;51.122;6.840;2023-07-31T10:58:26;100513.34;;;20.73;79.83
6020;BME280;3038;51.122;6.840;2023-07-31T11:00:55;100506.09;;;20.44;79.37
6020;BME280;3038;51.122;6.840;2023-07-31T11:03:40;100516.44;;;20.17;79.44
6020;BME280;3038;51.122;6.840;2023-07-31T11:06:07;100505.66;;;20.17;80.67
6020;BME280;3038;51.122;6.840;2023-07-31T11:08:34;100508.16;;;20.30;79.25
6020;BME280;3038;51.122;6.840;2023-07-31T11:13:32;100503.47;;;20.56;78.83
6020;BME280;3038;51.122;6.840;2023-07-31T11:15:57;100492.16;;;21.00;78.42
6020;BME280;3038;51.122;6.840;2023-07-31T11:18:23;100490.16;;;21.31;76.98
6020;BME280;3038;51.122;6.840;2023-07-31T11:20:49;100497.91;;;21.51;75.45
6020;BME280;3038;51.122;6.840;2023-07-31T11:23:16;100495.69;;;21.48;75.64
6020;BME280;3038;51.122;6.840;2023-07-31T11:25:42;100503.41;;;21.21;74.46
6020;BME280;3038;51.122;6.840;2023-07-31T11:28:14;100512.91;;;20.88;75.24
6020;BME280;3038;51.122;6.840;2023-07-31T11:30:41;100514.03;;;20.69;76.12
6020;BME280;3038;51.122;6.840;2023-07-31T11:33:09;100507.19;;;20.54;76.62
6020;BME280;3038;51.122;6.840;2023-07-31T11:35:40;100499.84;;;20.73;75.79
6020;BME280;3038;51.122;6.840;2023-07-31T11:38:06;100503.78;;;20.89;75.24
6020;BME280;3038;51.122;6.840;2023-07-31T11:40:41;100497.66;;;21.05;74.27
6020;BME280;3038;51.122;6.840;2023-07-31T11:43:07;100486.75;;;21.12;75.11
6020;BME280;3038;51.122;6.840;2023-07-31T11:45:33;100488.16;;;21.03;75.06
6020;BME280;3038;51.122;6.840;2023-07-31T11:48:00;100485.56;;;20.96;76.12
6020;BME280;3038;51.122;6.840;2023-07-31T11:50:26;100483.22;;;20.76;75.83
6020;BME280;3038;51.122;6.840;2023-07-31T11:53:00;100492.69;;;20.56;75.22
6020;BME280;3038;51.122;6.840;2023-07-31T11:55:28;100486.03;;;20.70;75.70
6020;BME280;3038;51.122;6.840;2023-07-31T11:57:56;100486.16;;;20.87;75.77
6020;BME280;3038;51.122;6.840;2023-07-31T12:00:22;100477.44;;;20.73;76.09
6020;BME280;3038;51.122;6.840;2023-07-31T12:02:48;100477.66;;;20.60;76.16
6020;BME280;3038;51.122;6.840;2023-07-31T12:05:13;100482.50;;;20.39;76.57
6020;BME280;3038;51.122;6.840;2023-07-31T12:07:45;100483.00;;;20.36;77.20
6020;BME280;3038;51.122;6.840;2023-07-31T12:10:11;100482.50;;;20.39;77.00
6020;BME280;3038;51.122;6.840;2023-07-31T12:12:36;100482.44;;;20.46;77.33
6020;BME280;3038;51.122;6.840;2023-07-31T12:15:02;100471.56;;;20.52;77.11
6020;BME280;3038;51.122;6.840;2023-07-31T12:17:27;100471.13;;;20.79;76.22
6020;BME280;3038;51.122;6.840;2023-07-31T12:19:53;100479.00;;;20.92;74.97
6020;BME280;3038;51.122;6.840;2023-07-31T12:22:20;100474.06;;;21.24;74.47
6020;BME280;3038;51.122;6.840;2023-07-31T12:24:46;100480.66;;;21.40;73.84
6020;BME280;3038;51.122;6.840;2023-07-31T12:27:15;100463.03;;;21.14;74.20
6020;BME280;3038;51.122;6.840;2023-07-31T12:29:42;100471.13;;;21.02;74.99
6020;BME280;3038;51.122;6.840;2023-07-31T12:32:25;100479.59;;;20.41;76.86
6020;BME280;3038;51.122;6.840;2023-07-31T12:34:53;100476.28;;;20.39;77.86
6020;BME280;3038;51.122;6.840;2023-07-31T12:37:20;100471.19;;;20.49;77.04
6020;BME280;3038;51.122;6.840;2023-07-31T12:39:46;100469.34;;;20.61;77.60
6020;BME280;3038;51.122;6.840;2023-07-31T12:42:11;100460.44;;;20.72;77.00
6020;BME280;3038;51.122;6.840;2023-07-31T12:44:37;100468.31;;;20.97;76.13
6020;BME280;3038;51.122;6.840;2023-07-31T12:47:02;100469.00;;;20.93;76.04
6020;BME280;3038;51.122;6.840;2023-07-31T12:49:29;100465.88;;;20.84;75.94
6020;BME280;3038;51.122;6.840;2023-07-31T12:51:54;100469.25;;;20.79;76.41
6020;BME280;3038;51.122;6.840;2023-07-31T12:54:19;100451.88;;;20.87;76.48
6020;BME280;3038;51.122;6.840;2023-07-31T12:56:45;100453.31;;;21.13;76.38
6020;BME280;3038;51.122;6.840;2023-07-31T12:59:10;100450.69;;;21.30;75.20
6020;BME280;3038;51.122;6.840;2023-07-31T13:01:36;100440.03;;;21.47;74.73
6020;BME280;3038;51.122;6.840;2023-07-31T13:04:01;100432.53;;;21.66;73.67
6020;BME280;3038;51.122;6.840;2023-07-31T13:06:26;100434.88;;;21.74;72.77
6020;BME280;3038;51.122;6.840;2023-07-31T13:08:52;100430.03;;;21.47;72.27
6020;BME280;3038;51.122;6.840;2023-07-31T13:11:17;100430.16;;;21.17;73.67
6020;BME280;3038;51.122;6.840;2023-07-31T13:13:42;100419.75;;;21.09;74.15
6020;BME280;3038;51.122;6.840;2023-07-31T13:16:08;100421.63;;;21.09;73.83
6020;BME280;3038;51.122;6.840;2023-07-31T13:18:33;100415.63;;;21.07;72.94
6020;BME280;3038;51.122;6.840;2023-07-31T13:20:58;100408.69;;;21.11;73.04
6020;BME280;3038;51.122;6.840;2023-07-31T13:23:24;100411.50;;;21.16;73.34